createdAt,value
2023-02-14T00:01:59.881Z,103213.20
2023-02-14T00:04:28.543Z,103217.40
2023-02-14T00:06:57.259Z,103212.60
2023-02-14T00:09:25.941Z,103221.00
2023-02-14T00:11:54.525Z,103210.60
2023-02-14T00:14:41.850Z,103207.00
2023-02-14T00:17:10.438Z,103210.00
2023-02-14T00:19:39.122Z,103215.60
2023-02-14T00:22:07.807Z,103217.60
2023-02-14T00:24:36.396Z,103217.40
2023-02-14T00:27:04.982Z,103219.60
2023-02-14T00:29:34.687Z,103217.40
2023-02-14T00:32:04.360Z,103219.20
2023-02-14T00:34:33.803Z,103224.40
2023-02-14T00:37:04.016Z,103227.60
2023-02-14T00:39:32.719Z,103220.40
2023-02-14T00:42:01.296Z,103218.60
2023-02-14T00:44:29.986Z,103220.40
2023-02-14T00:46:58.573Z,103216.20
2023-02-14T00:49:27.258Z,103215.60
2023-02-14T00:51:55.945Z,103224.00
2023-02-14T00:54:24.633Z,103221.40
2023-02-14T00:56:53.422Z,103217.80
2023-02-14T00:59:22.007Z,103216.60
2023-02-14T01:01:50.900Z,103217.40
2023-02-14T01:04:19.688Z,103216.60
2023-02-14T01:06:48.479Z,103213.00
2023-02-14T01:09:17.266Z,103210.60
2023-02-14T01:11:45.953Z,103208.80
2023-02-14T01:14:16.894Z,103203.20
2023-02-14T01:16:45.629Z,103202.20
2023-02-14T01:19:14.299Z,103206.00
2023-02-14T01:21:45.615Z,103199.80
2023-02-14T01:24:15.220Z,103191.00
2023-02-14T01:26:44.843Z,103193.60
2023-02-14T01:29:13.623Z,103197.60
2023-02-14T01:31:42.437Z,103197.00
2023-02-14T01:34:11.094Z,103194.00
2023-02-14T01:36:40.564Z,103196.20
2023-02-14T01:39:14.095Z,103203.00
2023-02-14T01:41:48.670Z,103198.40
2023-02-14T01:44:17.927Z,103187.20
2023-02-14T01:46:47.247Z,103188.80
2023-02-14T01:49:46.637Z,103187.80
2023-02-14T01:52:22.491Z,103184.80
2023-02-14T01:55:06.848Z,103183.20
2023-02-14T01:58:11.987Z,103182.60
2023-02-14T02:00:57.613Z,103179.40
2023-02-14T02:03:35.577Z,103178.20
2023-02-14T02:06:39.957Z,103172.20
2023-02-14T02:09:19.340Z,103174.40
2023-02-14T02:11:49.028Z,103169.60
2023-02-14T02:14:22.965Z,103170.00
2023-02-14T02:17:16.218Z,103169.20
2023-02-14T02:20:29.013Z,103166.40
2023-02-14T02:23:42.481Z,103175.20
2023-02-14T02:26:47.519Z,103182.20
2023-02-14T02:29:16.104Z,103186.40
2023-02-14T02:32:27.388Z,103187.20
2023-02-14T02:35:28.859Z,103190.00
2023-02-14T02:38:46.070Z,103189.40
2023-02-14T02:41:33.291Z,103184.40
2023-02-14T02:44:30.958Z,103184.00
2023-02-14T02:47:21.748Z,103188.20
2023-02-14T02:50:45.647Z,103188.80
2023-02-14T02:53:46.793Z,103185.80
2023-02-14T02:56:46.527Z,103189.40
2023-02-14T02:59:25.744Z,103179.60
2023-02-14T03:02:13.165Z,103180.60
2023-02-14T03:04:55.373Z,103176.00
2023-02-14T03:07:37.881Z,103175.80
2023-02-14T03:10:16.196Z,103175.20
2023-02-14T03:13:35.165Z,103185.20
2023-02-14T03:16:22.483Z,103183.60
2023-02-14T03:19:31.006Z,103179.80
2023-02-14T03:22:33.757Z,103181.80
2023-02-14T03:25:44.981Z,103180.80
2023-02-14T03:28:47.671Z,103183.80
2023-02-14T03:31:43.995Z,103182.00
2023-02-14T03:34:47.097Z,103191.20
2023-02-14T03:37:46.495Z,103180.60
2023-02-14T03:40:32.077Z,103179.80
2023-02-14T03:43:22.577Z,103185.60
2023-02-14T03:46:26.706Z,103184.40
2023-02-14T03:48:57.702Z,103183.00
2023-02-14T03:51:28.534Z,103184.00
2023-02-14T03:53:58.269Z,103183.80
2023-02-14T03:56:36.556Z,103180.40
2023-02-14T03:59:16.649Z,103183.40
2023-02-14T04:02:06.431Z,103180.80
2023-02-14T04:04:41.658Z,103182.60
2023-02-14T04:07:19.429Z,103182.60
2023-02-14T04:09:49.012Z,103186.80
2023-02-14T04:12:32.321Z,103183.00
2023-02-14T04:15:06.075Z,103183.20
2023-02-14T04:17:53.130Z,103190.80
2023-02-14T04:20:22.227Z,103182.20
2023-02-14T04:22:52.001Z,103179.20
2023-02-14T04:25:22.224Z,103176.40
2023-02-14T04:27:50.846Z,103172.60
2023-02-14T04:30:21.155Z,103169.00
2023-02-14T04:32:50.522Z,103173.20
2023-02-14T04:35:19.063Z,103170.80
2023-02-14T04:37:47.641Z,103169.20
2023-02-14T04:40:17.862Z,103167.80
2023-02-14T04:42:47.374Z,103167.40
2023-02-14T04:45:16.377Z,103173.60
2023-02-14T04:47:44.952Z,103174.60
2023-02-14T04:50:14.780Z,103169.20
2023-02-14T04:52:43.355Z,103166.80
2023-02-14T04:55:12.038Z,103165.20
2023-02-14T04:57:40.827Z,103167.80
2023-02-14T05:00:10.800Z,103164.20
2023-02-14T05:02:39.424Z,103163.60
2023-02-14T05:05:08.735Z,103161.60
2023-02-14T05:07:37.413Z,103161.80
2023-02-14T05:10:07.127Z,103153.80
2023-02-14T05:12:35.603Z,103156.40
2023-02-14T05:15:04.603Z,103155.00
2023-02-14T05:17:33.284Z,103157.00
2023-02-14T05:20:01.981Z,103158.00
2023-02-14T05:22:30.564Z,103157.60
2023-02-14T05:24:59.255Z,103156.80
2023-02-14T05:27:27.927Z,103151.00
2023-02-14T05:29:56.690Z,103155.60
2023-02-14T05:32:25.304Z,103151.20
2023-02-14T05:34:53.887Z,103155.00
2023-02-14T05:37:22.572Z,103146.60
2023-02-14T05:39:51.158Z,103155.00
2023-02-14T05:42:19.845Z,103153.60
2023-02-14T05:44:49.145Z,103154.80
2023-02-14T05:47:17.734Z,103163.80
2023-02-14T05:49:46.329Z,103156.60
2023-02-14T05:52:15.104Z,103155.40
2023-02-14T05:54:43.801Z,103157.00
2023-02-14T05:57:12.582Z,103157.80
2023-02-14T05:59:41.185Z,103161.40
2023-02-14T06:02:10.350Z,103159.40
2023-02-14T06:04:39.180Z,103159.80
2023-02-14T06:07:08.468Z,103159.40
2023-02-14T06:09:37.150Z,103161.00
2023-02-14T06:12:06.881Z,103165.20
2023-02-14T06:14:35.653Z,103163.60
2023-02-14T06:17:04.231Z,103163.20
2023-02-14T06:19:33.126Z,103161.60
2023-02-14T06:22:01.706Z,103161.00
2023-02-14T06:24:30.603Z,103160.60
2023-02-14T06:27:00.431Z,103173.60
2023-02-14T06:29:29.110Z,103171.60
2023-02-14T06:31:57.712Z,103168.80
2023-02-14T06:34:26.883Z,103169.00
2023-02-14T06:36:55.468Z,103176.60
2023-02-14T06:39:24.157Z,103175.80
2023-02-14T06:41:52.850Z,103172.20
2023-02-14T06:44:21.535Z,103171.40
2023-02-14T06:46:50.227Z,103167.00
2023-02-14T06:49:19.105Z,103169.60
2023-02-14T06:51:47.930Z,103171.20
2023-02-14T06:54:16.996Z,103180.80
2023-02-14T06:56:45.579Z,103189.80
2023-02-14T06:59:14.163Z,103189.20
2023-02-14T07:01:42.924Z,103190.20
2023-02-14T07:04:11.748Z,103191.80
2023-02-14T07:06:40.431Z,103189.60
2023-02-14T07:09:09.015Z,103191.20
2023-02-14T07:11:37.592Z,103192.40
2023-02-14T07:14:06.281Z,103185.20
2023-02-14T07:16:35.183Z,103188.20
2023-02-14T07:19:03.776Z,103191.00
2023-02-14T07:21:32.552Z,103184.00
2023-02-14T07:24:01.352Z,103184.80
2023-02-14T07:26:30.126Z,103188.40
2023-02-14T07:28:58.818Z,103190.20
2023-02-14T07:31:27.593Z,103196.60
2023-02-14T07:34:01.125Z,103199.80
2023-02-14T07:36:29.800Z,103194.40
2023-02-14T07:38:58.580Z,103191.00
2023-02-14T07:41:27.268Z,103200.00
2023-02-14T07:43:56.112Z,103203.40
2023-02-14T07:46:24.881Z,103189.20
2023-02-14T07:48:53.750Z,103186.80
2023-02-14T07:51:22.431Z,103190.40
2023-02-14T07:53:51.125Z,103191.60
2023-02-14T07:56:19.896Z,103194.40
2023-02-14T07:58:50.014Z,103197.40
2023-02-14T08:01:19.450Z,103197.00
2023-02-14T08:03:51.796Z,103192.60
2023-02-14T08:06:20.847Z,103194.00
2023-02-14T08:08:49.586Z,103202.80
2023-02-14T08:11:37.310Z,103203.20
2023-02-14T08:14:06.305Z,103204.60
2023-02-14T08:16:35.071Z,103204.20
2023-02-14T08:19:04.410Z,103204.80
2023-02-14T08:21:33.075Z,103208.00
2023-02-14T08:24:01.660Z,103205.20
2023-02-14T08:26:30.139Z,103204.40
2023-02-14T08:28:58.831Z,103199.80
2023-02-14T08:31:36.230Z,103204.40
2023-02-14T08:34:06.515Z,103203.00
2023-02-14T08:36:35.542Z,103207.00
2023-02-14T08:39:06.184Z,103210.20
2023-02-14T08:41:35.590Z,103212.80
2023-02-14T08:44:04.294Z,103212.40
2023-02-14T08:46:33.145Z,103204.80
2023-02-14T08:49:01.839Z,103201.80
2023-02-14T08:51:30.555Z,103207.80
2023-02-14T08:53:59.225Z,103206.20
2023-02-14T08:56:27.839Z,103211.80
2023-02-14T08:58:56.637Z,103208.20
2023-02-14T09:01:25.556Z,103214.60
2023-02-14T09:03:55.416Z,103210.60
2023-02-14T09:06:24.910Z,103214.20
2023-02-14T09:08:55.580Z,103214.80
2023-02-14T09:11:26.872Z,103217.20
2023-02-14T09:13:55.469Z,103216.40
2023-02-14T09:16:26.245Z,103214.40
2023-02-14T09:18:55.218Z,103214.80
2023-02-14T09:21:27.111Z,103220.00
2023-02-14T09:23:55.852Z,103222.40
2023-02-14T09:26:24.428Z,103223.00
2023-02-14T09:28:53.016Z,103226.60
2023-02-14T09:31:24.835Z,103221.60
2023-02-14T09:34:12.098Z,103212.60
2023-02-14T09:36:59.727Z,103214.20
2023-02-14T09:39:28.312Z,103212.00
2023-02-14T09:42:15.845Z,103217.40
2023-02-14T09:44:58.972Z,103213.60
2023-02-14T09:47:49.360Z,103218.20
2023-02-14T09:50:40.582Z,103219.60
2023-02-14T09:53:16.310Z,103214.00
2023-02-14T09:56:02.221Z,103214.60
2023-02-14T09:58:44.012Z,103218.00
2023-02-14T10:01:17.983Z,103213.80
2023-02-14T10:04:11.298Z,103217.00
2023-02-14T10:07:16.953Z,103217.60
2023-02-14T10:10:07.136Z,103211.80
2023-02-14T10:12:46.678Z,103213.20
2023-02-14T10:15:22.161Z,103212.00
2023-02-14T10:17:57.873Z,103209.40
2023-02-14T10:21:01.838Z,103210.60
2023-02-14T10:24:05.390Z,103204.20
2023-02-14T10:26:40.231Z,103205.60
2023-02-14T10:29:19.272Z,103202.60
2023-02-14T10:32:04.293Z,103194.80
2023-02-14T10:34:46.529Z,103190.20
2023-02-14T10:37:36.725Z,103186.00
2023-02-14T10:40:26.963Z,103188.00
2023-02-14T10:43:38.400Z,103182.40
2023-02-14T10:46:38.847Z,103182.60
2023-02-14T10:49:35.269Z,103180.20
2023-02-14T10:52:15.944Z,103177.60
2023-02-14T10:55:31.562Z,103189.40
2023-02-14T10:58:06.645Z,103183.20
2023-02-14T11:00:40.262Z,103186.40
2023-02-14T11:03:11.123Z,103184.80
2023-02-14T11:05:49.124Z,103181.80
2023-02-14T11:08:43.807Z,103179.60
2023-02-14T11:11:26.729Z,103173.80
2023-02-14T11:13:55.522Z,103177.60
2023-02-14T11:16:37.149Z,103172.00
2023-02-14T11:19:19.550Z,103167.80
2023-02-14T11:21:51.008Z,103164.20
2023-02-14T11:24:41.816Z,103165.00
2023-02-14T11:27:10.251Z,103155.60
2023-02-14T11:29:41.738Z,103157.00
2023-02-14T11:32:23.907Z,103160.60
2023-02-14T11:35:14.507Z,103158.00
2023-02-14T11:37:50.034Z,103158.80
2023-02-14T11:40:38.106Z,103152.60
2023-02-14T11:43:16.262Z,103153.00
2023-02-14T11:45:50.276Z,103148.00
2023-02-14T11:48:38.426Z,103141.40
2023-02-14T11:51:14.952Z,103141.00
2023-02-14T11:54:00.931Z,103137.20
2023-02-14T11:56:54.101Z,103128.20
2023-02-14T11:59:48.985Z,103131.80
2023-02-14T12:02:40.106Z,103135.40
2023-02-14T12:05:44.731Z,103130.40
2023-02-14T12:08:13.747Z,103126.00
2023-02-14T12:10:42.620Z,103123.60
2023-02-14T12:13:11.123Z,103125.60
2023-02-14T12:15:42.740Z,103123.20
2023-02-14T12:18:49.438Z,103119.20
2023-02-14T12:21:58.578Z,103122.60
2023-02-14T12:24:41.800Z,103120.40
2023-02-14T12:27:30.450Z,103113.20
2023-02-14T12:30:16.999Z,103115.40
2023-02-14T12:32:50.584Z,103118.40
2023-02-14T12:35:29.375Z,103114.80
2023-02-14T12:38:30.728Z,103112.20
2023-02-14T12:40:59.662Z,103105.20
2023-02-14T12:43:31.175Z,103105.00
2023-02-14T12:46:15.155Z,103098.60
2023-02-14T12:49:14.122Z,103092.60
2023-02-14T12:52:10.051Z,103093.20
2023-02-14T12:55:13.555Z,103094.20
2023-02-14T12:58:13.370Z,103081.60
2023-02-14T13:01:10.831Z,103084.20
2023-02-14T13:03:45.459Z,103078.20
2023-02-14T13:06:17.215Z,103072.20
2023-02-14T13:09:13.756Z,103068.00
2023-02-14T13:12:25.554Z,103066.40
2023-02-14T13:15:36.224Z,103065.80
2023-02-14T13:18:28.886Z,103061.00
2023-02-14T13:21:01.994Z,103056.40
2023-02-14T13:23:43.349Z,103061.00
2023-02-14T13:26:39.203Z,103058.00
2023-02-14T13:29:16.660Z,103053.60
2023-02-14T13:31:45.820Z,103056.20
2023-02-14T13:34:47.003Z,103056.40
2023-02-14T13:37:24.140Z,103047.20
2023-02-14T13:39:59.188Z,103050.80
2023-02-14T13:42:52.810Z,103046.00
2023-02-14T13:45:30.670Z,103046.00
2023-02-14T13:48:29.494Z,103042.40
2023-02-14T13:51:04.900Z,103040.00
2023-02-14T13:53:40.939Z,103032.60
2023-02-14T13:56:12.576Z,103036.40
2023-02-14T13:58:53.955Z,103026.20
2023-02-14T14:01:50.916Z,103030.40
2023-02-14T14:04:28.686Z,103035.20
2023-02-14T14:07:03.521Z,103033.00
2023-02-14T14:09:44.390Z,103028.40
2023-02-14T14:12:31.103Z,103031.00
2023-02-14T14:15:05.980Z,103030.60
2023-02-14T14:17:37.354Z,103029.40
2023-02-14T14:20:26.242Z,103029.00
2023-02-14T14:22:58.313Z,103025.00
2023-02-14T14:25:42.433Z,103019.40
2023-02-14T14:28:17.452Z,103019.80
2023-02-14T14:30:46.203Z,103020.60
2023-02-14T14:33:35.091Z,103024.40
2023-02-14T14:36:11.356Z,103020.40
2023-02-14T14:38:50.056Z,103016.80
2023-02-14T14:41:18.816Z,103016.80
2023-02-14T14:43:47.823Z,103013.40
2023-02-14T14:46:17.667Z,103012.80
2023-02-14T14:48:52.663Z,103015.60
2023-02-14T14:51:32.322Z,103016.00
2023-02-14T14:54:15.125Z,103018.20
2023-02-14T14:57:03.780Z,103018.80
2023-02-14T14:59:36.165Z,103013.20
2023-02-14T15:02:26.680Z,103016.40
2023-02-14T15:04:55.667Z,103013.00
2023-02-14T15:07:34.699Z,103008.20
2023-02-14T15:10:20.874Z,103012.20
2023-02-14T15:13:11.072Z,103006.80
2023-02-14T15:15:40.197Z,103003.00
2023-02-14T15:18:13.480Z,103003.80
2023-02-14T15:20:52.216Z,103006.60
2023-02-14T15:23:25.483Z,102999.60
2023-02-14T15:25:54.064Z,102997.00
2023-02-14T15:28:34.464Z,102996.80
2023-02-14T15:31:07.043Z,102998.00
2023-02-14T15:33:37.228Z,102995.60
2023-02-14T15:36:16.154Z,102992.40
2023-02-14T15:38:44.969Z,102988.80
2023-02-14T15:41:15.991Z,102988.00
2023-02-14T15:43:53.761Z,102981.40
2023-02-14T15:46:28.951Z,102972.40
2023-02-14T15:49:01.532Z,102976.60
2023-02-14T15:51:36.551Z,102979.60
2023-02-14T15:54:32.155Z,102976.60
2023-02-14T15:57:01.518Z,102980.40
2023-02-14T15:59:33.944Z,102976.60
2023-02-14T16:02:27.875Z,102976.60
2023-02-14T16:05:18.811Z,102969.40
2023-02-14T16:08:04.290Z,102971.80
2023-02-14T16:10:40.406Z,102977.00
2023-02-14T16:13:15.793Z,102973.80
2023-02-14T16:16:10.411Z,102975.80
2023-02-14T16:18:53.143Z,102976.20
2023-02-14T16:21:33.521Z,102988.00
2023-02-14T16:24:08.185Z,102983.60
2023-02-14T16:26:43.747Z,102986.60
2023-02-14T16:29:16.324Z,102987.40
2023-02-14T16:32:15.157Z,102988.80
2023-02-14T16:34:47.660Z,102990.40
2023-02-14T16:37:35.055Z,102990.80
2023-02-14T16:40:03.805Z,102994.40
2023-02-14T16:42:33.005Z,102991.80
2023-02-14T16:45:01.585Z,102991.40
2023-02-14T16:47:30.374Z,102993.20
2023-02-14T16:49:58.956Z,102994.00
2023-02-14T16:52:28.950Z,102991.80
2023-02-14T16:54:57.558Z,102984.80
2023-02-14T16:57:38.044Z,102989.60
2023-02-14T17:00:08.669Z,102991.40
2023-02-14T17:02:37.881Z,102992.20
2023-02-14T17:05:07.154Z,102989.80
2023-02-14T17:07:37.668Z,102987.20
2023-02-14T17:10:15.794Z,102991.80
2023-02-14T17:12:47.664Z,102997.40
2023-02-14T17:15:20.000Z,102999.80
2023-02-14T17:17:50.215Z,102995.60
2023-02-14T17:20:22.129Z,102996.00
2023-02-14T17:22:51.220Z,103003.40
2023-02-14T17:25:19.901Z,103008.60
2023-02-14T17:27:49.668Z,103008.00
2023-02-14T17:30:18.516Z,103007.80
2023-02-14T17:32:47.099Z,103010.00
2023-02-14T17:35:16.824Z,103012.80
2023-02-14T17:37:45.586Z,103005.80
2023-02-14T17:40:15.202Z,103002.60
2023-02-14T17:42:43.776Z,103008.80
2023-02-14T17:45:12.479Z,103004.80
2023-02-14T17:47:43.542Z,103000.00
2023-02-14T17:50:13.595Z,103002.80
2023-02-14T17:52:43.052Z,103002.00
2023-02-14T17:55:12.623Z,103001.60
2023-02-14T17:57:42.066Z,103004.40
2023-02-14T18:00:12.210Z,103011.00
2023-02-14T18:02:43.639Z,103016.60
2023-02-14T18:05:12.613Z,103008.80
2023-02-14T18:07:41.325Z,103011.80
2023-02-14T18:10:11.121Z,103012.40
2023-02-14T18:12:39.696Z,103016.60
2023-02-14T18:15:09.551Z,103013.60
2023-02-14T18:17:38.109Z,103013.80
2023-02-14T18:20:07.976Z,103015.60
2023-02-14T18:22:37.105Z,103018.40
2023-02-14T18:25:07.784Z,103017.80
2023-02-14T18:27:36.325Z,103011.00
2023-02-14T18:30:06.893Z,103011.00
2023-02-14T18:32:35.434Z,103011.40
2023-02-14T18:35:04.331Z,103010.80
2023-02-14T18:37:33.013Z,103006.40
2023-02-14T18:40:01.708Z,103004.60
2023-02-14T18:42:30.496Z,103005.80
2023-02-14T18:44:59.171Z,103005.40
2023-02-14T18:47:27.861Z,103010.00
2023-02-14T18:49:56.759Z,103009.40
2023-02-14T18:52:25.558Z,103007.00
2023-02-14T18:54:54.234Z,103011.40
2023-02-14T18:57:22.916Z,103005.60
2023-02-14T18:59:51.509Z,103003.00
2023-02-14T19:02:20.318Z,103003.40
2023-02-14T19:04:49.082Z,103006.00
2023-02-14T19:07:17.871Z,103007.40
2023-02-14T19:09:46.478Z,103010.40
2023-02-14T19:12:15.346Z,102998.60
2023-02-14T19:14:43.834Z,103001.20
2023-02-14T19:17:13.437Z,103004.40
2023-02-14T19:19:42.028Z,103002.60
2023-02-14T19:22:11.546Z,103005.00
2023-02-14T19:24:40.384Z,103000.20
2023-02-14T19:27:09.112Z,102997.00
2023-02-14T19:29:38.559Z,102994.60
2023-02-14T19:32:07.228Z,102988.20
2023-02-14T19:34:36.613Z,102986.40
2023-02-14T19:37:05.292Z,102986.40
2023-02-14T19:39:33.885Z,102978.80
2023-02-14T19:42:04.372Z,102976.00
2023-02-14T19:44:33.504Z,102967.00
2023-02-14T19:47:09.792Z,102969.00
2023-02-14T19:49:45.024Z,102967.80
2023-02-14T19:52:25.741Z,102967.80
2023-02-14T19:54:58.365Z,102969.20
2023-02-14T19:57:27.436Z,102971.40
2023-02-14T19:59:56.243Z,102970.00
2023-02-14T20:02:25.363Z,102968.80
2023-02-14T20:04:58.984Z,102969.20
2023-02-14T20:07:27.653Z,102969.20
2023-02-14T20:09:56.515Z,102969.80
2023-02-14T20:12:25.007Z,102971.80
2023-02-14T20:14:54.705Z,102968.60
2023-02-14T20:17:23.193Z,102968.20
2023-02-14T20:19:53.052Z,102961.40
2023-02-14T20:22:23.278Z,102959.40
2023-02-14T20:24:51.891Z,102947.60
2023-02-14T20:27:20.903Z,102952.20
2023-02-14T20:29:50.932Z,102947.20
2023-02-14T20:32:19.517Z,102942.20
2023-02-14T20:34:48.603Z,102947.60
2023-02-14T20:37:17.186Z,102945.40
2023-02-14T20:39:45.974Z,102941.40
2023-02-14T20:42:14.868Z,102945.80
2023-02-14T20:44:43.630Z,102941.00
2023-02-14T20:47:12.444Z,102937.00
2023-02-14T20:49:44.923Z,102936.20
2023-02-14T20:52:13.510Z,102938.60
2023-02-14T20:54:42.105Z,102936.00
2023-02-14T20:57:10.679Z,102929.00
2023-02-14T20:59:44.525Z,102932.20
2023-02-14T21:02:13.080Z,102924.60
2023-02-14T21:04:41.650Z,102924.40
2023-02-14T21:07:10.656Z,102924.40
2023-02-14T21:09:39.440Z,102928.20
2023-02-14T21:12:08.377Z,102928.20
2023-02-14T21:14:36.911Z,102929.20
2023-02-14T21:17:05.699Z,102918.40
2023-02-14T21:19:34.287Z,102919.40
2023-02-14T21:22:03.198Z,102915.20
2023-02-14T21:24:31.976Z,102917.40
2023-02-14T21:27:01.985Z,102912.60
2023-02-14T21:29:30.577Z,102908.80
2023-02-14T21:32:00.513Z,102910.00
2023-02-14T21:34:31.560Z,102913.20
2023-02-14T21:37:00.119Z,102911.20
2023-02-14T21:39:31.269Z,102911.80
2023-02-14T21:42:01.278Z,102910.20
2023-02-14T21:44:48.507Z,102909.60
2023-02-14T21:47:17.097Z,102914.80
2023-02-14T21:50:04.210Z,102913.00
2023-02-14T21:52:33.305Z,102911.60
2023-02-14T21:55:01.788Z,102906.40
2023-02-14T21:57:31.545Z,102901.80
2023-02-14T22:00:00.113Z,102905.80
2023-02-14T22:02:28.780Z,102905.40
2023-02-14T22:04:57.452Z,102908.20
2023-02-14T22:07:29.416Z,102915.60
2023-02-14T22:09:58.019Z,102915.20
2023-02-14T22:12:26.786Z,102908.00
2023-02-14T22:14:55.679Z,102912.60
2023-02-14T22:17:24.167Z,102916.60
2023-02-14T22:19:52.847Z,102913.40
2023-02-14T22:22:21.780Z,102912.80
2023-02-14T22:24:50.528Z,102913.20
2023-02-14T22:27:19.315Z,102914.20
2023-02-14T22:29:47.896Z,102911.60
2023-02-14T22:32:16.544Z,102904.00
2023-02-14T22:34:46.194Z,102907.20
2023-02-14T22:37:14.775Z,102902.20
2023-02-14T22:39:43.363Z,102906.20
2023-02-14T22:42:11.950Z,102901.00
2023-02-14T22:44:40.529Z,102901.40
2023-02-14T22:47:09.217Z,102895.60
2023-02-14T22:49:37.901Z,102896.00
2023-02-14T22:52:06.480Z,102894.60
2023-02-14T22:54:35.070Z,102888.00
2023-02-14T22:57:03.865Z,102887.00
2023-02-14T22:59:33.674Z,102879.80
2023-02-14T23:02:02.352Z,102876.80
2023-02-14T23:04:31.259Z,102878.60
2023-02-14T23:06:59.734Z,102883.20
2023-02-14T23:09:28.727Z,102876.60
2023-02-14T23:11:57.311Z,102874.00
2023-02-14T23:14:44.328Z,102866.00
2023-02-14T23:17:35.236Z,102870.00
2023-02-14T23:20:23.193Z,102866.60
2023-02-14T23:22:51.864Z,102870.60
2023-02-14T23:25:20.451Z,102859.60
2023-02-14T23:27:49.032Z,102864.80
2023-02-14T23:30:19.727Z,102857.00
2023-02-14T23:32:48.502Z,102857.20
2023-02-14T23:35:17.143Z,102855.00
2023-02-14T23:37:45.726Z,102848.60
2023-02-14T23:40:14.418Z,102839.20
2023-02-14T23:42:43.000Z,102833.60
2023-02-14T23:45:30.663Z,102835.20
2023-02-14T23:48:05.498Z,102833.60
2023-02-14T23:50:34.256Z,102838.00
2023-02-14T23:53:02.731Z,102834.40
2023-02-14T23:55:31.324Z,102842.60
2023-02-14T23:58:00.658Z,102841.80
